To NAV CANADA Home Page Login to a new session Search on AWWS site Feedback and Comments Disclaimer Vers la page française équivalente Tips FAQ What's new on the site To the Forecasts and Observations / NOTAM section To "File a Flight Plan" website Publications and other links Update of the User's profile FIC Telephone Numbers My Weather Data Folder Route Weather Data Regional Weather Data Local Weather Data To the Forecasts and Observations / NOTAM section
Request Generated 10/01/2016 at 10:20:20 UTC . Weather information available at that time is displayed.

METAR/TAF

SASKATOON/JOHN G. DIEFENBAKER INTL/SK    

METAR CYXE 011000Z 05014KT 1 1/2SM BR OVC002 10/10 A3005 RMK ST8
SLP186=
SPECI CYXE 010944Z 04014G20KT 2SM BR OVC002 10/10 A3005 RMK ST8
SLP185=
METAR CYXE 010900Z 04014KT 3SM BR OVC003 10/10 A3004 RMK SF8 SLP183=
SPECI CYXE 010844Z 02011KT 6SM BR BKN003 10/10 A3004 RMK SF7 SLP183=
METAR CYXE 010800Z 01006KT 15SM FEW008 10/10 A3004 RMK SF2 SLP184=

TAF AMD CYXE 010907Z 0109/0206 04012KT 1SM BR OVC002 TEMPO 0109/0115
6SM BR OVC006 PROB30 0109/0112 OVC001
FM011500 06012KT 4SM BR OVC008
BECMG 0115/0117 P6SM NSW SCT012
FM011700 06012KT P6SM FEW012
BECMG 0120/0122 10012G22KT
FM020400 15015G25KT P6SM FEW080 SCT200
RMK NXT FCST BY 011200Z=
Your time UTC time
Weather data provided by Environment Canada and NAV CANADA